Ocean Falls, Canada
Current Conditions -  °F | °C
As of 1:00 AM on Saturday 25 Oct 2014 (Local Time) from CBBC Reporting Station
Overcast Overcast  
Wind Chill: 41°   Ceiling: 7500
Heat Index: 41°   Visibility: 9mi
Dew Point: 39°   Wind: 0mph
Humidity: 93%   Direction: NA
Pressure: 29.84"   Gusts: NA
Location:  52.35°N, 127.7°W
Report Text: CBBC 250800Z AUTO 00000KT 9SM BKN075 OVC120 05/04 A2984 RMK SLP104
Loading
Personal Weather Stations






























Interactive Weather Map New forecast layout! Learn more

10-Day Weather Forecast

Advertisements
Track Severe Weather on mobile